Time;durP1;ratioP1;P1;durP2;ratioP2;P2;SDS_P1;SDS_P2;PMS_P1;PMS_P2;Temp;Humidity;BMP_temperature;BMP_pressure;BME280_temperature;BME280_humidity;BME280_pressure;Samples;Min_cycle;Max_cycle;Signal;HPM_P1;HPM_P2
2021/11/30 00:02:58;;;;;;;3.03;1.08;;;;;;;8.50;100.00;99392.66;5092563;28;20135;-56
2021/11/30 00:06:01;;;;;;;0.82;0.32;;;;;;;8.45;100.00;99390.53;5092574;28;20109;-56
2021/11/30 00:12:45;;;;;;;0.10;0.10;;;;;;;8.62;100.00;99399.22;4991643;28;20061;-60
2021/11/30 00:15:52;;;;;;;0.60;0.60;;;;;;;8.62;100.00;99394.41;4982104;28;20142;-60
2021/11/30 00:18:54;;;;;;;0.85;0.50;;;;;;;8.66;100.00;99400.56;4973343;28;20138;-60
2021/11/30 00:21:58;;;;;;;1.27;1.17;;;;;;;8.68;100.00;99398.09;4972784;28;20112;-60
2021/11/30 00:25:00;;;;;;;4.10;0.65;;;;;;;8.62;100.00;99390.88;4974706;28;20049;-60
2021/11/30 00:28:04;;;;;;;0.63;0.63;;;;;;;8.59;100.00;99389.81;4992395;28;20458;-61
2021/11/30 00:31:07;;;;;;;0.63;0.63;;;;;;;8.49;100.00;99391.09;4992232;28;20169;-61
2021/11/30 00:34:10;;;;;;;1.75;0.98;;;;;;;8.59;100.00;99389.81;4991554;28;20049;-61
2021/11/30 00:37:13;;;;;;;0.60;0.60;;;;;;;8.67;100.00;99385.44;4972309;28;20064;-58
2021/11/30 00:40:17;;;;;;;2.05;1.02;;;;;;;8.62;100.00;99377.75;4972094;28;20525;-60
2021/11/30 00:43:26;;;;;;;2.17;0.70;;;;;;;8.70;100.00;99373.41;4972280;28;20117;-60
2021/11/30 00:46:34;;;;;;;0.65;0.65;;;;;;;8.83;100.00;99382.25;4972158;28;20054;-58
2021/11/30 00:49:37;;;;;;;0.45;0.45;;;;;;;8.93;100.00;99375.38;4971657;28;20462;-59
2021/11/30 00:52:40;;;;;;;0.17;0.17;;;;;;;9.15;100.00;99370.22;4971336;28;20147;-59
2021/11/30 00:55:43;;;;;;;0.50;0.30;;;;;;;9.30;100.00;99377.78;4974461;28;20170;-59
2021/11/30 00:58:47;;;;;;;3.30;0.80;;;;;;;9.41;100.00;99375.22;4975572;28;20074;-59
2021/11/30 01:01:50;;;;;;;0.40;0.40;;;;;;;9.40;100.00;99382.03;4975716;28;20041;-59
2021/11/30 01:04:53;;;;;;;0.65;0.45;;;;;;;9.35;100.00;99371.56;4975330;28;20156;-59
2021/11/30 01:07:56;;;;;;;2.67;0.50;;;;;;;9.42;100.00;99376.75;4975903;28;20101;-59
2021/11/30 01:11:00;;;;;;;0.65;0.30;;;;;;;9.56;100.00;99375.97;4975683;28;20098;-59
2021/11/30 01:14:04;;;;;;;0.30;0.30;;;;;;;9.60;100.00;99371.75;4975842;28;20085;-59
2021/11/30 01:17:07;;;;;;;0.57;0.57;;;;;;;9.74;100.00;99359.09;4975426;28;20510;-58
2021/11/30 01:20:11;;;;;;;0.95;0.57;;;;;;;9.83;100.00;99361.78;4975519;28;20057;-58
2021/11/30 01:23:14;;;;;;;1.75;0.55;;;;;;;9.74;100.00;99359.88;4975092;28;20081;-58
2021/11/30 01:26:17;;;;;;;0.30;0.30;;;;;;;9.66;100.00;99357.94;4977907;28;20088;-56
2021/11/30 01:29:19;;;;;;;0.30;0.30;;;;;;;9.74;100.00;99361.88;4975193;28;20506;-57
2021/11/30 01:32:22;;;;;;;0.25;0.25;;;;;;;9.70;100.00;99364.09;4975736;28;20077;-58
2021/11/30 01:35:25;;;;;;;0.50;0.38;;;;;;;9.77;100.00;99358.13;4975364;28;20126;-59
2021/11/30 01:38:30;;;;;;;5.57;1.02;;;;;;;9.81;100.00;99376.13;4975325;28;20069;-58
2021/11/30 01:41:35;;;;;;;0.52;0.50;;;;;;;10.00;100.00;99385.03;4975117;28;20518;-58
2021/11/30 01:51:06;;;;;;;0.55;0.28;;;;;;;10.11;100.00;99376.88;4975583;28;20057;-58
2021/11/30 01:54:09;;;;;;;0.32;0.17;;;;;;;10.10;100.00;99386.44;4974893;28;20057;-59
2021/11/30 01:57:15;;;;;;;0.20;0.20;;;;;;;10.24;100.00;99374.56;4975475;28;20077;-59
2021/11/30 02:00:20;;;;;;;0.55;0.47;;;;;;;10.21;100.00;99375.50;4974828;28;20174;-58
2021/11/30 02:03:23;;;;;;;0.20;0.20;;;;;;;10.31;100.00;99379.69;4974842;28;20049;-59
2021/11/30 02:06:26;;;;;;;0.43;0.13;;;;;;;10.40;100.00;99379.56;4989370;28;20125;-59
2021/11/30 02:09:31;;;;;;;0.70;0.68;;;;;;;10.34;100.00;99377.94;4994619;28;20405;-59
2021/11/30 02:12:37;;;;;;;0.20;0.20;;;;;;;10.42;100.00;99374.28;4993412;28;20105;-61
2021/11/30 02:15:45;;;;;;;1.90;0.65;;;;;;;10.40;100.00;99353.72;4991364;28;20409;-59
2021/11/30 02:18:51;;;;;;;0.10;0.10;;;;;;;10.44;100.00;99371.75;4994392;28;20084;-59
2021/11/30 02:21:55;;;;;;;1.30;0.63;;;;;;;10.55;100.00;99366.34;4994240;28;20129;-59
2021/11/30 02:24:58;;;;;;;0.10;0.10;;;;;;;10.52;100.00;99367.34;4991898;28;20049;-59
2021/11/30 02:28:01;;;;;;;0.40;0.40;;;;;;;10.57;100.00;99374.19;4994404;28;20068;-59
2021/11/30 02:31:04;;;;;;;1.33;0.30;;;;;;;10.60;100.00;99362.09;4993954;28;20085;-59
2021/11/30 02:34:07;;;;;;;0.30;0.30;;;;;;;10.68;100.00;99369.53;4994147;28;20128;-59
2021/11/30 02:40:34;;;;;;;0.10;0.10;;;;;;;10.73;100.00;99372.88;4992280;28;20060;-80
2021/11/30 02:43:37;;;;;;;0.25;0.20;;;;;;;10.81;100.00;99371.19;4991790;28;20073;-80
2021/11/30 02:46:46;;;;;;;0.13;0.13;;;;;;;10.89;100.00;99367.53;4981106;28;20109;-80
2021/11/30 02:49:49;;;;;;;0.20;0.20;;;;;;;10.89;100.00;99377.91;4981245;28;20053;-81
2021/11/30 02:52:52;;;;;;;0.40;0.20;;;;;;;10.98;100.00;99369.41;4980958;28;20104;-81
2021/11/30 02:55:55;;;;;;;0.20;0.20;;;;;;;10.92;100.00;99372.09;4992629;28;20134;-80
2021/11/30 02:58:58;;;;;;;0.90;0.40;;;;;;;10.98;100.00;99358.25;4991895;28;20049;-81
2021/11/30 03:02:07;;;;;;;0.20;0.20;;;;;;;10.98;100.00;99370.13;4993218;28;20048;-79
2021/11/30 03:05:10;;;;;;;0.43;0.40;;;;;;;10.90;100.00;99351.56;4980977;28;20052;-80
2021/11/30 03:08:13;;;;;;;1.95;0.43;;;;;;;11.02;100.00;99353.22;4992718;28;20712;-80
2021/11/30 03:11:15;;;;;;;0.20;0.20;;;;;;;11.07;100.00;99352.50;4980886;28;20559;-81
2021/11/30 03:14:18;;;;;;;0.20;0.20;;;;;;;11.10;100.00;99343.94;4992638;28;20045;-80
2021/11/30 03:17:22;;;;;;;0.40;0.28;;;;;;;11.20;100.00;99366.81;4992124;28;20074;-80
2021/11/30 03:20:25;;;;;;;0.10;0.10;;;;;;;11.19;100.00;99363.28;4992659;28;20538;-81
2021/11/30 03:23:28;;;;;;;0.10;0.10;;;;;;;11.32;100.00;99354.53;4991748;28;20076;-81
2021/11/30 03:26:31;;;;;;;0.10;0.10;;;;;;;11.28;100.00;99349.16;4993936;28;20049;-81
2021/11/30 03:29:34;;;;;;;0.10;0.10;;;;;;;11.28;100.00;99332.44;4991623;28;20130;-81
2021/11/30 03:36:00;;;;;;;0.20;0.20;;;;;;;11.49;100.00;99324.78;4992590;28;20058;-81
2021/11/30 03:39:05;;;;;;;0.30;0.10;;;;;;;11.49;100.00;99330.34;4980117;28;20069;-82
2021/11/30 03:42:08;;;;;;;0.43;0.25;;;;;;;11.55;100.00;99324.81;4992245;28;20042;-81
2021/11/30 03:45:13;;;;;;;0.30;0.30;;;;;;;11.03;100.00;99329.66;4992348;28;20129;-81
2021/11/30 03:48:16;;;;;;;0.10;0.10;;;;;;;10.75;100.00;99345.31;4980167;28;20502;-81
2021/11/30 03:51:19;;;;;;;0.10;0.10;;;;;;;10.98;100.00;99352.69;4967021;28;20517;-81
2021/11/30 03:54:22;;;;;;;0.25;0.25;;;;;;;11.14;100.00;99343.72;4975940;28;20050;-82
2021/11/30 03:57:25;;;;;;;0.30;0.30;;;;;;;11.34;100.00;99336.06;4992018;28;20133;-81
2021/11/30 04:00:28;;;;;;;1.85;0.38;;;;;;;11.25;100.00;99341.81;4992194;28;20102;-81
2021/11/30 04:03:34;;;;;;;0.30;0.10;;;;;;;10.89;100.00;99342.47;4979653;28;20154;-81
2021/11/30 04:06:37;;;;;;;0.10;0.10;;;;;;;10.68;100.00;99330.56;4979572;28;20073;-81
2021/11/30 04:09:40;;;;;;;0.10;0.10;;;;;;;10.79;100.00;99329.16;4979581;28;20041;-81
2021/11/30 04:12:42;;;;;;;1.10;0.25;;;;;;;10.90;100.00;99340.41;4991333;28;20125;-82
2021/11/30 04:15:45;;;;;;;0.15;0.15;;;;;;;10.91;100.00;99333.59;4991777;28;20516;-82
2021/11/30 04:18:48;;;;;;;0.15;0.10;;;;;;;10.98;100.00;99330.38;4991489;28;20044;-82
2021/11/30 04:21:51;;;;;;;0.10;0.10;;;;;;;10.98;100.00;99324.81;4979621;28;20041;-82
2021/11/30 04:24:54;;;;;;;0.10;0.10;;;;;;;11.09;100.00;99324.91;4978078;28;20049;-81
2021/11/30 04:27:57;;;;;;;0.30;0.30;;;;;;;11.04;100.00;99315.25;4972195;28;20054;-81
2021/11/30 04:50:32;;;;;;;0.50;0.50;;;;;;;11.18;100.00;99316.38;6259690;22;1330782;-56
2021/11/30 04:53:35;;;;;;;0.13;0.03;;;;;;;11.24;100.00;99323.53;6314287;22;20026;-56
2021/11/30 04:56:38;;;;;;;1.65;0.88;;;;;;;11.24;100.00;99320.00;6314446;22;20077;-58
2021/11/30 04:59:41;;;;;;;0.52;0.52;;;;;;;11.28;100.00;99318.50;6313140;22;20026;-58
2021/11/30 05:02:44;;;;;;;0.50;0.50;;;;;;;11.35;100.00;99334.00;6314558;22;20332;-57
2021/11/30 05:05:46;;;;;;;0.13;0.13;;;;;;;11.24;100.00;99343.03;6314285;22;20144;-57
2021/11/30 05:08:49;;;;;;;0.65;0.65;;;;;;;11.43;100.00;99332.34;6314145;22;20041;-57
2021/11/30 05:11:52;;;;;;;0.68;0.60;;;;;;;11.52;100.00;99329.34;6314239;22;20081;-57
2021/11/30 05:14:55;;;;;;;0.65;0.40;;;;;;;11.56;100.00;99321.53;6314580;22;20052;-57
2021/11/30 05:17:58;;;;;;;0.28;0.28;;;;;;;11.51;100.00;99333.41;6314281;22;20022;-57
2021/11/30 05:21:01;;;;;;;0.10;0.10;;;;;;;11.52;100.00;99334.94;6314832;22;20388;-57
2021/11/30 05:24:06;;;;;;;0.17;0.17;;;;;;;11.47;100.00;99323.75;6314718;22;20022;-57
2021/11/30 05:27:09;;;;;;;0.50;0.20;;;;;;;11.46;100.00;99330.59;6314369;22;20153;-56
2021/11/30 05:30:15;;;;;;;1.27;1.02;;;;;;;11.43;100.00;99321.19;6314474;22;20026;-57
2021/11/30 05:33:18;;;;;;;1.00;0.40;;;;;;;11.50;100.00;99326.28;6314706;22;20499;-56
2021/11/30 05:36:21;;;;;;;0.10;0.10;;;;;;;11.57;100.00;99337.00;6314532;22;20037;-57
2021/11/30 05:39:24;;;;;;;12.93;0.80;;;;;;;11.60;100.00;99324.88;6314161;22;20339;-57
2021/11/30 05:42:27;;;;;;;0.30;0.28;;;;;;;11.64;100.00;99330.97;6314728;22;20359;-57
2021/11/30 05:45:30;;;;;;;0.85;0.15;;;;;;;12.10;100.00;99328.81;6314930;22;20026;-57
2021/11/30 05:48:34;;;;;;;0.47;0.47;;;;;;;12.01;100.00;99329.00;6314038;22;20085;-57
2021/11/30 05:51:37;;;;;;;0.20;0.20;;;;;;;12.14;100.00;99334.13;6306912;22;20235;-57
2021/11/30 05:54:40;;;;;;;0.20;0.13;;;;;;;11.99;100.00;99333.53;6307385;22;20026;-57
2021/11/30 05:57:43;;;;;;;0.25;0.25;;;;;;;12.05;100.00;99343.47;6306388;22;20072;-57
2021/11/30 06:00:48;;;;;;;0.95;0.77;;;;;;;11.95;100.00;99350.50;6306995;22;20022;-57
2021/11/30 06:06:54;;;;;;;0.40;0.20;;;;;;;12.05;100.00;99342.72;6307225;22;20153;-57
2021/11/30 06:09:57;;;;;;;0.35;0.35;;;;;;;12.10;100.00;99345.53;6307225;22;20100;-57
2021/11/30 06:13:00;;;;;;;1.10;0.45;;;;;;;12.02;100.00;99344.47;6306552;22;20053;-57
2021/11/30 06:16:03;;;;;;;0.10;0.10;;;;;;;12.07;100.00;99359.72;6307106;22;20026;-57
2021/11/30 06:19:07;;;;;;;0.15;0.15;;;;;;;12.01;100.00;99356.91;6307042;22;20029;-57
2021/11/30 06:22:11;;;;;;;0.20;0.20;;;;;;;11.98;100.00;99345.94;6306445;22;20057;-56
2021/11/30 06:25:14;;;;;;;0.70;0.30;;;;;;;12.01;100.00;99362.47;6307149;22;20022;-57
2021/11/30 06:28:17;;;;;;;0.30;0.30;;;;;;;12.10;100.00;99356.72;6306780;22;20022;-57
2021/11/30 06:31:20;;;;;;;0.35;0.20;;;;;;;12.11;100.00;99363.81;6307159;22;20093;-57
2021/11/30 06:34:22;;;;;;;1.08;0.63;;;;;;;12.12;100.00;99356.22;6306691;22;20022;-56
2021/11/30 06:37:25;;;;;;;0.10;0.10;;;;;;;12.11;100.00;99358.22;6306580;22;20026;-56
2021/11/30 06:40:28;;;;;;;0.10;0.10;;;;;;;12.08;100.00;99359.22;6306341;22;20041;-57
2021/11/30 06:43:31;;;;;;;0.57;0.40;;;;;;;11.91;100.00;99366.72;6305997;22;20027;-56
2021/11/30 06:46:34;;;;;;;0.20;0.15;;;;;;;11.88;100.00;99362.13;6306324;22;20026;-56
2021/11/30 06:49:37;;;;;;;0.55;0.20;;;;;;;12.07;100.00;99368.84;6306449;22;20057;-56
2021/11/30 06:52:40;;;;;;;0.10;0.10;;;;;;;12.02;100.00;99366.00;6306633;22;20096;-56
2021/11/30 06:55:43;;;;;;;6.30;0.70;;;;;;;12.05;100.00;99387.34;6306968;22;20022;-56
2021/11/30 06:58:46;;;;;;;0.10;0.10;;;;;;;12.10;100.00;99384.63;6306243;22;20041;-56
2021/11/30 07:01:49;;;;;;;0.10;0.10;;;;;;;12.13;100.00;99378.03;6306077;22;20026;-56
2021/11/30 07:04:54;;;;;;;2.35;0.52;;;;;;;12.21;100.00;99383.16;6306482;22;20192;-56
2021/11/30 07:08:16;;;;;;;3.70;0.65;;;;;;;12.26;100.00;99394.34;6306686;22;20018;-56
2021/11/30 07:11:22;;;;;;;0.50;0.50;;;;;;;12.28;100.00;99386.22;6306444;22;20088;-56
2021/11/30 07:14:26;;;;;;;0.20;0.20;;;;;;;12.25;100.00;99383.69;6306739;22;20050;-56
2021/11/30 07:17:31;;;;;;;1.20;0.20;;;;;;;12.18;100.00;99385.69;6306203;22;20079;-56
2021/11/30 07:20:34;;;;;;;1.15;1.05;;;;;;;12.21;100.00;99383.16;6306438;22;20029;-56
2021/11/30 07:23:37;;;;;;;0.20;0.20;;;;;;;12.14;100.00;99382.38;6306124;22;20072;-56
2021/11/30 07:26:40;;;;;;;0.20;0.20;;;;;;;12.18;100.00;99402.44;6306215;22;20026;-56
2021/11/30 07:29:43;;;;;;;0.13;0.13;;;;;;;12.11;100.00;99390.94;6305843;22;20466;-56
2021/11/30 07:32:46;;;;;;;0.77;0.17;;;;;;;12.22;100.00;99393.03;6306185;22;20136;-56
2021/11/30 07:35:50;;;;;;;0.10;0.10;;;;;;;12.24;100.00;99393.31;6305566;22;20106;-56
2021/11/30 07:38:53;;;;;;;0.10;0.10;;;;;;;12.22;100.00;99401.41;6305704;22;20034;-57
2021/11/30 07:41:56;;;;;;;0.30;0.10;;;;;;;12.24;100.00;99393.31;6305714;22;20181;-56
2021/11/30 07:45:00;;;;;;;0.10;0.10;;;;;;;12.27;100.00;99409.06;6305908;22;20116;-56
2021/11/30 07:48:03;;;;;;;0.30;0.30;;;;;;;12.15;100.00;99409.00;6305637;22;20018;-56
2021/11/30 07:51:06;;;;;;;0.10;0.10;;;;;;;12.17;100.00;99395.31;6305798;22;20026;-56
2021/11/30 07:54:09;;;;;;;0.10;0.10;;;;;;;12.19;100.00;99390.00;6305862;22;20053;-56
2021/11/30 07:57:12;;;;;;;0.20;0.20;;;;;;;12.15;100.00;99400.63;6306243;22;20113;-56
2021/11/30 08:00:17;;;;;;;0.10;0.10;;;;;;;12.22;100.00;99390.25;6306139;22;20054;-56
2021/11/30 08:03:20;;;;;;;0.20;0.20;;;;;;;12.10;100.00;99389.44;6306314;22;20076;-56
2021/11/30 08:06:23;;;;;;;0.30;0.20;;;;;;;12.15;100.00;99397.06;6306075;22;20466;-56
2021/11/30 08:09:27;;;;;;;0.52;0.22;;;;;;;12.15;100.00;99392.25;6305738;22;20025;-56
2021/11/30 08:12:30;;;;;;;0.35;0.30;;;;;;;12.08;100.00;99391.97;6304926;22;20076;-56
2021/11/30 08:15:36;;;;;;;0.10;0.10;;;;;;;12.09;100.00;99402.63;6305700;22;20026;-55
2021/11/30 08:18:39;;;;;;;0.20;0.20;;;;;;;11.97;100.00;99392.66;6304377;22;20022;-55
2021/11/30 08:21:42;;;;;;;0.25;0.25;;;;;;;11.90;100.00;99395.88;6305035;22;20367;-55
2021/11/30 08:24:48;;;;;;;1.02;0.40;;;;;;;11.91;100.00;99396.66;6305432;22;20019;-56
2021/11/30 08:27:52;;;;;;;0.10;0.10;;;;;;;11.95;100.00;99392.34;6303722;22;20029;-56
2021/11/30 08:30:55;;;;;;;0.10;0.10;;;;;;;12.08;100.00;99386.38;6305312;22;20025;-55
2021/11/30 08:33:58;;;;;;;0.10;0.10;;;;;;;12.15;100.00;99392.25;6305961;22;20026;-56
2021/11/30 08:37:01;;;;;;;0.10;0.10;;;;;;;12.18;100.00;99396.84;6306212;22;20045;-55
2021/11/30 08:40:06;;;;;;;0.20;0.20;;;;;;;12.31;100.00;99396.41;6305274;22;20062;-56
2021/11/30 08:43:09;;;;;;;3.30;0.35;;;;;;;12.38;100.00;99397.97;6305872;22;20022;-55
2021/11/30 08:46:12;;;;;;;0.20;0.13;;;;;;;12.37;100.00;99399.22;6305895;22;20052;-55
2021/11/30 08:49:15;;;;;;;0.13;0.10;;;;;;;12.43;100.00;99395.22;6305835;22;20121;-56
2021/11/30 08:52:24;;;;;;;14.00;1.85;;;;;;;12.47;100.00;99389.41;6305069;22;20029;-56
2021/11/30 08:55:27;;;;;;;0.15;0.15;;;;;;;12.49;100.00;99392.47;6305280;22;20045;-56
2021/11/30 08:58:31;;;;;;;2.60;1.58;;;;;;;12.55;100.00;99390.47;6305239;22;20148;-55
2021/11/30 09:01:34;;;;;;;0.32;0.30;;;;;;;12.58;100.00;99381.09;6304384;22;20098;-55
2021/11/30 09:04:37;;;;;;;1.02;0.25;;;;;;;12.61;100.00;99399.63;6304265;22;20057;-55
2021/11/30 09:07:40;;;;;;;0.80;0.80;;;;;;;12.59;100.00;99390.97;6305472;22;20025;-55
2021/11/30 09:10:43;;;;;;;5.78;0.57;;;;;;;12.63;100.00;99369.16;6305043;22;20117;-55
2021/11/30 09:13:47;;;;;;;1.20;0.80;;;;;;;12.74;100.00;99380.38;6304081;22;20038;-55
2021/11/30 09:16:51;;;;;;;0.57;0.40;;;;;;;12.74;100.00;99369.19;6304755;22;20072;-55
2021/11/30 09:19:54;;;;;;;2.92;0.68;;;;;;;12.70;100.00;99357.50;6304718;22;20081;-55
2021/11/30 09:22:57;;;;;;;1.30;0.73;;;;;;;12.64;100.00;99365.88;6305376;22;20022;-55
2021/11/30 09:26:01;;;;;;;4.40;0.63;;;;;;;12.67;100.00;99364.09;6305864;22;20077;-55
2021/11/30 09:29:05;;;;;;;0.55;0.55;;;;;;;12.62;100.00;99367.63;6306059;22;20467;-55
2021/11/30 09:32:10;;;;;;;0.20;0.20;;;;;;;12.50;100.00;99354.88;6307709;22;20030;-55
2021/11/30 09:35:18;;;;;;;0.90;0.30;;;;;;;12.46;100.00;99357.13;6307412;22;20022;-55
2021/11/30 09:38:21;;;;;;;0.20;0.20;;;;;;;12.31;100.00;99356.56;6307096;22;20025;-55
2021/11/30 09:41:24;;;;;;;0.20;0.20;;;;;;;12.28;100.00;99361.09;6306870;22;20022;-55
2021/11/30 09:44:28;;;;;;;0.17;0.17;;;;;;;12.23;100.00;99353.47;6307581;22;20156;-55
2021/11/30 09:47:33;;;;;;;0.10;0.10;;;;;;;12.36;100.00;99362.19;6307352;22;20022;-55
2021/11/30 09:50:37;;;;;;;0.20;0.20;;;;;;;12.38;100.00;99364.47;6306741;22;20030;-55
2021/11/30 09:53:40;;;;;;;0.17;0.17;;;;;;;12.36;100.00;99361.41;6306660;22;20092;-55
2021/11/30 09:56:43;;;;;;;3.30;0.63;;;;;;;12.41;100.00;99355.09;6307225;22;20346;-55
2021/11/30 09:59:47;;;;;;;0.93;0.73;;;;;;;12.31;100.00;99359.34;6306500;22;20027;-55
2021/11/30 10:02:51;;;;;;;3.42;0.52;;;;;;;12.25;100.00;99356.53;6306670;22;20077;-55
2021/11/30 10:05:56;;;;;;;3.60;0.52;;;;;;;12.19;100.00;99364.88;6306209;22;20026;-55
2021/11/30 10:08:59;;;;;;;0.40;0.30;;;;;;;12.14;100.00;99374.00;6306830;22;20026;-55
2021/11/30 10:12:06;;;;;;;0.10;0.10;;;;;;;12.16;100.00;99377.03;6306597;22;20021;-55
2021/11/30 10:15:11;;;;;;;0.93;0.70;;;;;;;12.07;100.00;99379.25;6307112;22;20022;-55
2021/11/30 10:18:19;;;;;;;3.33;0.93;;;;;;;11.91;100.00;99372.28;6306780;22;20025;-55
2021/11/30 10:21:23;;;;;;;0.55;0.55;;;;;;;11.93;100.00;99369.75;6307328;22;20026;-55
2021/11/30 10:24:26;;;;;;;1.13;0.70;;;;;;;11.84;100.00;99361.59;6307316;22;20026;-55
2021/11/30 10:27:30;;;;;;;2.05;0.70;;;;;;;11.86;100.00;99369.47;6306847;22;20076;-55
2021/11/30 10:30:36;;;;;;;0.45;0.43;;;;;;;11.91;100.00;99358.34;6288503;22;20341;-55
2021/11/30 10:33:38;;;;;;;4.57;1.13;;;;;;;11.87;100.00;99368.19;6240595;22;20027;-55
2021/11/30 10:36:52;;;;;;;0.40;0.30;;;;;;;11.90;100.00;99364.41;6244323;22;20062;-56
2021/11/30 10:40:07;;;;;;;0.50;0.50;;;;;;;11.77;100.00;99359.25;6243739;22;20399;-55
2021/11/30 10:43:11;;;;;;;2.55;1.30;;;;;;;12.04;100.00;99358.69;6223277;22;20085;-55
2021/11/30 10:46:28;;;;;;;0.40;0.10;;;;;;;12.11;100.00;99355.44;6244297;22;20021;-55
2021/11/30 10:49:31;;;;;;;0.35;0.20;;;;;;;11.97;100.00;99348.00;6217992;22;20047;-55
2021/11/30 10:52:34;;;;;;;0.98;0.47;;;;;;;11.90;100.00;99353.25;6213726;23;20035;-56
2021/11/30 10:55:38;;;;;;;7.60;0.85;;;;;;;11.72;100.00;99348.81;6213567;23;20522;-55
2021/11/30 10:58:42;;;;;;;0.80;0.70;;;;;;;11.64;100.00;99341.38;6213197;23;20028;-55
2021/11/30 11:01:45;;;;;;;2.33;1.33;;;;;;;11.67;100.00;99346.75;6225796;22;20475;-54
2021/11/30 11:04:48;;;;;;;0.35;0.35;;;;;;;11.74;100.00;99337.94;6213312;22;20043;-54
2021/11/30 11:08:16;;;;;;;0.17;0.15;;;;;;;11.84;100.00;99333.69;6213542;23;20023;-54
2021/11/30 11:11:37;;;;;;;2.30;0.30;;;;;;;11.76;100.00;99324.25;6220660;22;20035;-54
2021/11/30 11:14:46;;;;;;;0.20;0.20;;;;;;;11.80;100.00;99321.97;6239968;22;20097;-54
2021/11/30 11:17:51;;;;;;;2.53;0.75;;;;;;;11.87;100.00;99318.75;6243919;22;20050;-55
2021/11/30 11:21:15;;;;;;;3.80;0.13;;;;;;;11.96;100.00;99307.38;6244280;22;20066;-54
2021/11/30 11:24:25;;;;;;;1.98;0.43;;;;;;;12.03;100.00;99315.31;6213817;23;20035;-56
2021/11/30 11:27:33;;;;;;;0.40;0.40;;;;;;;12.07;100.00;99317.84;6219060;22;20035;-56
2021/11/30 11:30:36;;;;;;;0.60;0.55;;;;;;;12.09;100.00;99310.50;6217167;22;20357;-56
2021/11/30 11:33:39;;;;;;;0.45;0.45;;;;;;;12.17;100.00;99300.41;6213447;23;20376;-56
2021/11/30 11:36:44;;;;;;;1.63;0.65;;;;;;;12.37;100.00;99298.69;6213648;22;20105;-55
2021/11/30 11:39:49;;;;;;;0.85;0.85;;;;;;;12.37;100.00;99295.91;6213286;23;20051;-56
2021/11/30 11:42:56;;;;;;;0.52;0.52;;;;;;;12.31;100.00;99289.53;6212711;23;20077;-56
2021/11/30 11:45:59;;;;;;;0.25;0.25;;;;;;;12.43;100.00;99277.19;6225478;22;20407;-56
2021/11/30 11:49:05;;;;;;;1.10;0.50;;;;;;;12.48;100.00;99268.81;6224515;22;20087;-56
2021/11/30 11:52:29;;;;;;;0.68;0.68;;;;;;;12.55;100.00;99261.97;6222947;22;20050;-55
2021/11/30 11:55:33;;;;;;;0.82;0.63;;;;;;;12.57;100.00;99259.44;6217171;22;20031;-56
2021/11/30 11:58:37;;;;;;;0.50;0.50;;;;;;;12.58;100.00;99247.00;6212952;23;20075;-56
2021/11/30 12:01:43;;;;;;;1.85;0.93;;;;;;;12.56;100.00;99243.97;6213094;23;20096;-55
2021/11/30 12:05:02;;;;;;;1.20;0.40;;;;;;;12.68;100.00;99248.28;6213282;23;20024;-55
2021/11/30 12:08:35;;;;;;;0.20;0.20;;;;;;;12.78;100.00;99247.53;6223733;22;20466;-55
2021/11/30 12:11:41;;;;;;;0.80;0.32;;;;;;;12.91;100.00;99233.09;6216239;22;20147;-55
2021/11/30 12:14:47;;;;;;;2.00;0.75;;;;;;;13.06;100.00;99222.44;6216497;22;20047;-55
2021/11/30 12:17:50;;;;;;;0.20;0.20;;;;;;;13.30;100.00;99222.72;6213835;23;21558;-56
2021/11/30 12:21:07;;;;;;;0.20;0.20;;;;;;;13.60;100.00;99214.53;6212981;23;20055;-55
2021/11/30 12:24:10;;;;;;;0.20;0.20;;;;;;;13.89;100.00;99201.97;6222474;22;20083;-56
2021/11/30 12:27:24;;;;;;;0.77;0.43;;;;;;;14.06;100.00;99188.69;6221831;22;20082;-55
2021/11/30 12:30:49;;;;;;;3.13;0.30;;;;;;;14.18;100.00;99178.97;6212663;22;20074;-55
2021/11/30 12:33:52;;;;;;;0.10;0.00;;;;;;;14.16;100.00;99184.31;6241844;22;20019;-55
2021/11/30 12:37:05;;;;;;;0.15;0.10;;;;;;;14.46;100.00;99181.66;6243103;22;20023;-55
2021/11/30 12:40:14;;;;;;;0.32;0.05;;;;;;;14.59;100.00;99174.19;6221974;22;20031;-56
2021/11/30 12:43:24;;;;;;;0.20;0.20;;;;;;;14.61;100.00;99170.84;6213088;23;20337;-55
2021/11/30 12:46:36;;;;;;;0.20;0.20;;;;;;;14.59;100.00;99168.56;6218727;22;20028;-55
2021/11/30 12:49:44;;;;;;;0.98;0.15;;;;;;;14.51;100.00;99161.97;6239523;22;20104;-55
2021/11/30 12:52:52;;;;;;;0.60;0.30;;;;;;;14.50;100.00;99146.47;6243640;22;20361;-56
2021/11/30 12:55:55;;;;;;;0.20;0.20;;;;;;;14.49;100.00;99142.13;6225376;22;20085;-55
2021/11/30 12:58:58;;;;;;;0.45;0.20;;;;;;;14.49;100.00;99130.94;6223989;22;20046;-56
2021/11/30 13:02:20;;;;;;;0.30;0.22;;;;;;;14.59;100.00;99117.38;6226211;22;20026;-56
2021/11/30 13:05:26;;;;;;;;;;;;;;;14.60;100.00;99108.44;6215754;23;20075;-56
2021/11/30 13:08:29;;;;;;;0.65;0.35;;;;;;;14.55;100.00;99100.84;6220572;22;19938;-56
2021/11/30 13:11:33;;;;;;;0.52;0.20;;;;;;;14.37;100.00;99095.88;6239494;22;20093;-56
2021/11/30 13:14:38;;;;;;;0.10;0.10;;;;;;;14.16;100.00;99108.72;6245026;22;20024;-56
2021/11/30 13:17:42;;;;;;;4.30;0.40;;;;;;;14.08;100.00;99096.53;6244888;22;20345;-54
2021/11/30 13:20:46;;;;;;;0.10;0.00;;;;;;;14.10;100.00;99099.56;6245151;22;20046;-54
2021/11/30 13:23:48;;;;;;;0.17;0.10;;;;;;;14.30;100.00;99100.00;6244762;22;20525;-54
2021/11/30 13:26:52;;;;;;;0.10;0.10;;;;;;;14.39;100.00;99082.13;6244805;22;20483;-56
2021/11/30 13:29:57;;;;;;;3.70;0.20;;;;;;;14.46;100.00;99064.75;6230988;22;20049;-56
2021/11/30 13:33:04;;;;;;;0.30;0.20;;;;;;;14.50;100.00;99067.25;6226364;22;20051;-57
2021/11/30 13:36:08;;;;;;;0.10;0.10;;;;;;;14.53;100.00;99061.34;6224880;22;20864;-56
2021/11/30 13:39:11;;;;;;;1.83;0.43;;;;;;;14.60;100.00;99052.38;6223543;22;20057;-54
2021/11/30 13:42:14;;;;;;;0.10;0.10;;;;;;;14.41;100.00;99041.09;6222992;22;20415;-56
2021/11/30 13:45:18;;;;;;;0.17;0.17;;;;;;;14.32;100.00;99032.25;6222150;22;20430;-56
2021/11/30 13:48:31;;;;;;;0.10;0.10;;;;;;;14.07;100.00;99016.63;6221627;22;20092;-56
2021/11/30 13:51:36;;;;;;;0.20;0.20;;;;;;;13.92;100.00;99021.81;6217952;22;20031;-57
2021/11/30 13:54:40;;;;;;;2.40;0.57;;;;;;;13.89;100.00;99014.44;6214252;23;20537;-56
2021/11/30 13:57:43;;;;;;;0.88;0.60;;;;;;;13.87;100.00;99008.63;6213909;23;20042;-55
2021/11/30 14:00:59;;;;;;;0.10;0.10;;;;;;;13.82;100.00;99006.63;6213896;22;20055;-56
2021/11/30 14:04:12;;;;;;;0.10;0.10;;;;;;;13.83;100.00;98994.13;6225142;22;20397;-57
2021/11/30 14:07:15;;;;;;;1.55;0.20;;;;;;;13.80;100.00;98993.13;6222765;22;20024;-57
2021/11/30 14:10:23;;;;;;;1.27;0.20;;;;;;;13.65;100.00;98995.50;6220306;23;20024;-54
2021/11/30 14:13:26;;;;;;;0.50;0.35;;;;;;;13.66;100.00;98997.78;6213033;23;20023;-56
2021/11/30 14:16:29;;;;;;;0.73;0.73;;;;;;;13.80;100.00;98992.38;6225659;22;20066;-57
2021/11/30 14:19:32;;;;;;;0.32;0.15;;;;;;;13.68;100.00;98986.09;6218267;22;20028;-55
2021/11/30 14:22:39;;;;;;;0.35;0.32;;;;;;;13.60;100.00;98985.09;6214251;22;20054;-55
2021/11/30 14:25:42;;;;;;;2.65;0.30;;;;;;;13.50;100.00;98970.69;6214146;22;20066;-54
2021/11/30 14:28:57;;;;;;;0.13;0.13;;;;;;;13.37;100.00;98976.09;6214215;22;20035;-54
2021/11/30 14:32:14;;;;;;;1.05;0.40;;;;;;;13.24;100.00;98964.72;6225520;22;20507;-54
2021/11/30 14:35:17;;;;;;;2.38;0.80;;;;;;;13.18;100.00;98961.19;6222006;22;20068;-57
2021/11/30 14:38:31;;;;;;;3.50;0.40;;;;;;;12.98;100.00;98964.28;6220624;22;20031;-57
2021/11/30 14:41:34;;;;;;;0.30;0.30;;;;;;;12.83;100.00;98961.03;6216744;22;20412;-56
2021/11/30 14:44:37;;;;;;;1.00;0.68;;;;;;;12.64;100.00;98965.66;6213292;23;20032;-54
2021/11/30 14:47:40;;;;;;;0.32;0.22;;;;;;;12.43;100.00;98962.38;6212999;23;20353;-57
2021/11/30 14:50:52;;;;;;;0.10;0.10;;;;;;;12.46;100.00;98952.97;6213299;22;20047;-57
2021/11/30 14:54:07;;;;;;;5.47;0.47;;;;;;;12.50;100.00;98947.91;6226169;22;20097;-57
2021/11/30 14:57:26;;;;;;;0.38;0.38;;;;;;;12.64;100.00;98934.91;6223322;22;20074;-57
2021/11/30 15:00:33;;;;;;;2.63;0.95;;;;;;;12.75;100.00;98934.88;6213515;22;20087;-56
2021/11/30 15:03:40;;;;;;;0.73;0.45;;;;;;;12.75;100.00;98932.88;6217327;23;20090;-55